createdAt,value
2022-08-17T00:00:43.879Z,27.62
2022-08-17T00:03:28.497Z,27.66
2022-08-17T00:06:12.203Z,27.66
2022-08-17T00:08:47.371Z,27.72
2022-08-17T00:11:30.294Z,27.65
2022-08-17T00:14:02.050Z,27.67
2022-08-17T00:16:55.828Z,27.56
2022-08-17T00:19:26.889Z,27.59
2022-08-17T00:22:31.501Z,27.60
2022-08-17T00:24:46.922Z,27.61
2022-08-17T00:27:15.410Z,27.63
2022-08-17T00:29:45.877Z,27.63
2022-08-17T00:33:22.800Z,27.59
2022-08-17T00:35:08.716Z,27.61
2022-08-17T00:37:37.420Z,27.62
2022-08-17T00:40:07.867Z,27.45
2022-08-17T00:42:36.492Z,27.43
2022-08-17T00:45:08.293Z,27.53
2022-08-17T00:47:36.890Z,27.45
2022-08-17T00:50:07.621Z,27.48
2022-08-17T00:52:39.493Z,27.50
2022-08-17T00:55:08.390Z,27.46
2022-08-17T00:57:40.765Z,27.40
2022-08-17T01:00:17.991Z,27.46
2022-08-17T01:02:46.775Z,27.46
2022-08-17T01:05:21.241Z,27.45
2022-08-17T01:07:51.144Z,27.43
2022-08-17T01:10:59.223Z,27.31
2022-08-17T01:13:12.840Z,27.44
2022-08-17T01:16:26.472Z,27.32
2022-08-17T01:19:01.561Z,27.30
2022-08-17T01:22:11.292Z,27.37
2022-08-17T01:24:48.000Z,27.36
2022-08-17T01:27:18.475Z,27.35
2022-08-17T01:29:52.450Z,27.35
2022-08-17T01:32:21.261Z,27.36
2022-08-17T01:34:51.018Z,27.38
2022-08-17T01:37:21.765Z,27.31
2022-08-17T01:39:56.956Z,27.30
2022-08-17T01:42:32.167Z,27.27
2022-08-17T01:45:07.641Z,27.17
2022-08-17T01:47:37.522Z,27.24
2022-08-17T01:50:13.450Z,27.22
2022-08-17T01:52:43.963Z,27.18
2022-08-17T01:55:13.391Z,27.21
2022-08-17T01:57:42.020Z,27.22
2022-08-17T02:00:11.080Z,27.18
2022-08-17T02:02:39.964Z,27.13
2022-08-17T02:05:08.754Z,27.03
2022-08-17T02:07:59.375Z,26.85
2022-08-17T02:10:33.726Z,26.66
2022-08-17T02:13:04.455Z,26.67
2022-08-17T02:15:34.990Z,26.75
2022-08-17T02:18:04.560Z,26.76
2022-08-17T02:20:41.609Z,26.81
2022-08-17T02:23:12.614Z,26.77
2022-08-17T02:25:43.621Z,26.78
2022-08-17T02:28:12.591Z,26.79
2022-08-17T02:31:00.886Z,26.63
2022-08-17T02:33:41.746Z,26.38
2022-08-17T02:36:13.062Z,26.13
2022-08-17T02:38:42.624Z,26.30
2022-08-17T02:41:13.224Z,26.24
2022-08-17T02:43:42.114Z,25.86
2022-08-17T02:46:13.060Z,25.72
2022-08-17T02:48:42.208Z,26.06
2022-08-17T02:51:10.909Z,25.94
2022-08-17T02:53:39.375Z,25.98
2022-08-17T02:56:07.869Z,26.08
2022-08-17T02:58:36.543Z,26.13
2022-08-17T03:01:06.670Z,26.03
2022-08-17T03:03:39.030Z,26.10
2022-08-17T03:06:08.382Z,26.07
2022-08-17T03:08:38.675Z,26.08
2022-08-17T03:11:07.113Z,26.04
2022-08-17T03:13:36.211Z,25.93
2022-08-17T03:16:05.088Z,25.68
2022-08-17T03:18:33.601Z,25.82
2022-08-17T03:21:04.690Z,25.76
2022-08-17T03:23:33.261Z,25.65
2022-08-17T03:26:01.775Z,25.80
2022-08-17T03:28:31.097Z,25.81
2022-08-17T03:30:59.545Z,25.74
2022-08-17T03:33:28.005Z,25.68
2022-08-17T03:35:56.785Z,25.78
2022-08-17T03:38:25.702Z,25.90
2022-08-17T03:40:56.413Z,26.03
2022-08-17T03:43:31.112Z,26.11
2022-08-17T03:46:28.327Z,26.27
2022-08-17T03:49:25.053Z,26.29
2022-08-17T03:52:14.186Z,26.22
2022-08-17T03:55:01.936Z,26.24
2022-08-17T03:57:30.942Z,26.17
2022-08-17T04:00:00.218Z,26.17
2022-08-17T04:02:34.765Z,26.14
2022-08-17T04:05:03.746Z,26.07
2022-08-17T04:07:32.375Z,25.98
2022-08-17T04:10:01.275Z,25.81
2022-08-17T04:12:31.331Z,25.40
2022-08-17T04:15:00.228Z,24.92
2022-08-17T04:17:29.603Z,24.98
2022-08-17T04:19:58.289Z,24.88
2022-08-17T04:22:31.184Z,24.78
2022-08-17T04:25:18.526Z,24.62
2022-08-17T04:27:48.575Z,24.61
2022-08-17T04:30:17.317Z,24.91
2022-08-17T04:33:08.842Z,25.22
2022-08-17T04:35:50.285Z,25.32
2022-08-17T04:38:25.725Z,25.27
2022-08-17T04:41:13.419Z,25.30
2022-08-17T04:43:43.385Z,25.18
2022-08-17T04:46:18.588Z,25.15
2022-08-17T04:48:50.294Z,24.77
2022-08-17T04:51:34.820Z,24.86
2022-08-17T04:54:06.614Z,25.01
2022-08-17T04:56:36.061Z,24.77
2022-08-17T04:59:16.915Z,24.84
2022-08-17T05:01:47.141Z,24.91
2022-08-17T05:04:33.765Z,24.80
2022-08-17T05:07:05.000Z,24.80
2022-08-17T05:09:33.673Z,24.81
2022-08-17T05:12:02.975Z,24.83
2022-08-17T05:14:32.440Z,25.05
2022-08-17T05:17:04.538Z,25.10
2022-08-17T05:19:36.182Z,24.88
2022-08-17T05:22:06.883Z,24.67
2022-08-17T05:24:40.795Z,24.48
2022-08-17T05:27:23.426Z,24.27
2022-08-17T05:29:52.551Z,24.49
2022-08-17T05:32:37.773Z,24.42
2022-08-17T05:35:09.181Z,24.78
2022-08-17T05:37:38.029Z,24.94
2022-08-17T05:40:08.027Z,24.81
2022-08-17T05:42:36.741Z,24.87
2022-08-17T05:45:06.251Z,24.79
2022-08-17T05:47:34.671Z,24.68
2022-08-17T05:50:09.582Z,25.07
2022-08-17T05:53:04.062Z,25.13
2022-08-17T05:55:59.225Z,25.17
2022-08-17T05:58:59.413Z,25.38
2022-08-17T06:01:58.492Z,25.72
2022-08-17T06:04:56.308Z,25.78
2022-08-17T06:07:47.484Z,25.89
2022-08-17T06:10:21.404Z,25.72
2022-08-17T06:13:32.112Z,25.72
2022-08-17T06:16:33.466Z,25.77
2022-08-17T06:19:21.094Z,25.90
2022-08-17T06:21:53.184Z,26.04
2022-08-17T06:24:43.834Z,26.06
2022-08-17T06:27:39.265Z,26.17
2022-08-17T06:30:09.907Z,26.25
2022-08-17T06:32:41.766Z,26.08
2022-08-17T06:35:14.931Z,26.09
2022-08-17T06:38:04.695Z,26.17
2022-08-17T06:40:56.706Z,26.32
2022-08-17T06:43:43.116Z,26.42
2022-08-17T06:46:41.465Z,26.38
2022-08-17T06:49:30.578Z,26.17
2022-08-17T06:52:03.444Z,26.04
2022-08-17T06:54:59.415Z,26.25
2022-08-17T06:57:38.144Z,26.45
2022-08-17T07:00:20.244Z,26.40
2022-08-17T07:03:00.585Z,26.44
2022-08-17T07:05:52.394Z,26.39
2022-08-17T07:08:38.584Z,26.56
2022-08-17T07:11:19.592Z,26.69
2022-08-17T07:14:07.573Z,26.75
2022-08-17T07:16:48.124Z,26.74
2022-08-17T07:19:17.781Z,26.82
2022-08-17T07:22:20.744Z,26.91
2022-08-17T07:25:00.843Z,26.89
2022-08-17T07:27:46.255Z,26.88
2022-08-17T07:30:31.165Z,26.93
2022-08-17T07:33:14.380Z,26.93
2022-08-17T07:35:44.509Z,27.01
2022-08-17T07:38:24.896Z,27.01
2022-08-17T07:41:01.456Z,27.04
2022-08-17T07:43:39.819Z,27.14
2022-08-17T07:46:46.803Z,27.21
2022-08-17T07:49:15.393Z,27.22
2022-08-17T07:51:43.990Z,27.25
2022-08-17T07:54:28.003Z,27.26
2022-08-17T07:57:15.073Z,27.27
2022-08-17T08:00:12.810Z,27.25
2022-08-17T08:02:47.781Z,27.22
2022-08-17T08:05:49.416Z,27.27
2022-08-17T08:08:28.321Z,27.29
2022-08-17T08:11:11.999Z,27.33
2022-08-17T08:13:44.043Z,27.38
2022-08-17T08:16:29.378Z,27.44
2022-08-17T08:19:00.961Z,27.41
2022-08-17T08:21:49.573Z,27.40
2022-08-17T08:24:33.095Z,27.31
2022-08-17T08:27:48.909Z,27.40
2022-08-17T08:30:21.614Z,27.45
2022-08-17T08:32:53.762Z,27.47
2022-08-17T08:35:33.882Z,27.54
2022-08-17T08:38:14.767Z,27.36
2022-08-17T08:40:48.765Z,27.40
2022-08-17T08:43:52.247Z,27.65
2022-08-17T08:46:50.746Z,27.43
2022-08-17T08:50:03.398Z,27.56
2022-08-17T08:52:51.562Z,27.55
2022-08-17T08:55:42.991Z,27.65
2022-08-17T08:58:43.853Z,27.66
2022-08-17T09:01:43.350Z,27.73
2022-08-17T09:05:13.771Z,27.72
2022-08-17T09:08:09.410Z,27.78
2022-08-17T09:12:02.911Z,27.87
2022-08-17T09:14:46.959Z,27.84
2022-08-17T09:17:40.992Z,27.68
2022-08-17T09:20:27.595Z,27.78
2022-08-17T09:23:18.913Z,27.83
2022-08-17T09:26:16.492Z,27.99
2022-08-17T09:28:52.332Z,28.00
2022-08-17T09:31:48.724Z,28.03
2022-08-17T09:34:48.622Z,28.04
2022-08-17T09:37:56.482Z,28.23
2022-08-17T09:40:34.791Z,28.13
2022-08-17T09:43:32.664Z,28.17
2022-08-17T09:46:24.153Z,28.28
2022-08-17T09:48:59.674Z,28.49
2022-08-17T09:51:40.645Z,28.50
2022-08-17T09:54:39.693Z,28.46
2022-08-17T09:57:34.852Z,28.59
2022-08-17T10:00:13.766Z,28.38
2022-08-17T10:02:54.745Z,28.30
2022-08-17T10:05:37.540Z,28.28
2022-08-17T10:08:53.032Z,28.47
2022-08-17T10:11:55.301Z,28.70
2022-08-17T10:14:53.528Z,28.68
2022-08-17T10:18:03.292Z,28.74
2022-08-17T10:21:34.612Z,28.69
2022-08-17T10:24:25.991Z,28.61
2022-08-17T10:26:57.146Z,28.50
2022-08-17T10:29:49.819Z,28.57
2022-08-17T10:32:34.050Z,28.67
2022-08-17T10:35:18.903Z,28.59
2022-08-17T10:38:05.784Z,28.60
2022-08-17T10:40:49.864Z,28.47
2022-08-17T10:44:37.474Z,28.69
2022-08-17T10:46:55.654Z,28.86
2022-08-17T10:49:29.873Z,28.81
2022-08-17T10:52:01.665Z,28.72
2022-08-17T10:54:49.008Z,28.83
2022-08-17T10:57:32.456Z,28.87
2022-08-17T11:00:18.935Z,29.02
2022-08-17T11:02:52.799Z,28.90
2022-08-17T11:05:50.513Z,28.88
2022-08-17T11:08:37.837Z,29.03
2022-08-17T11:11:36.463Z,29.08
2022-08-17T11:14:24.474Z,29.13
2022-08-17T11:17:37.464Z,28.93
2022-08-17T11:20:41.473Z,28.86
2022-08-17T11:24:06.957Z,28.99
2022-08-17T11:26:37.793Z,28.96
2022-08-17T11:29:17.715Z,28.96
2022-08-17T11:32:11.090Z,29.02
2022-08-17T11:34:42.017Z,28.86
2022-08-17T11:37:45.333Z,28.98
2022-08-17T11:40:51.993Z,29.10
2022-08-17T11:44:02.002Z,29.02
2022-08-17T11:47:20.973Z,29.02
2022-08-17T11:50:57.134Z,29.05
2022-08-17T11:53:38.017Z,28.98
2022-08-17T11:56:30.385Z,29.04
2022-08-17T11:59:00.763Z,29.07
2022-08-17T12:01:56.114Z,29.03
2022-08-17T12:04:33.886Z,29.08
2022-08-17T12:07:21.492Z,28.97
2022-08-17T12:09:50.875Z,28.91
2022-08-17T12:12:30.085Z,28.92
2022-08-17T12:15:09.989Z,28.91
2022-08-17T12:17:42.030Z,28.91
2022-08-17T12:20:21.692Z,28.89
2022-08-17T12:23:05.078Z,29.00
2022-08-17T12:25:51.765Z,29.08
2022-08-17T12:28:31.153Z,28.95
2022-08-17T12:31:08.553Z,28.97
2022-08-17T12:33:37.772Z,29.03
2022-08-17T12:36:08.856Z,29.20
2022-08-17T12:38:37.974Z,29.08
2022-08-17T12:41:26.483Z,29.16
2022-08-17T12:44:14.626Z,29.31
2022-08-17T12:47:10.053Z,29.40
2022-08-17T12:49:44.414Z,29.26
2022-08-17T12:52:17.165Z,29.25
2022-08-17T12:55:15.224Z,29.21
2022-08-17T12:57:47.324Z,29.28
2022-08-17T13:00:17.965Z,29.42
2022-08-17T13:03:02.101Z,29.21
2022-08-17T13:05:41.266Z,29.42
2022-08-17T13:08:18.692Z,29.52
2022-08-17T13:11:16.446Z,29.50
2022-08-17T13:13:55.158Z,29.37
2022-08-17T13:16:27.383Z,29.38
2022-08-17T13:19:40.794Z,29.40
2022-08-17T13:22:13.065Z,29.49
2022-08-17T13:24:53.421Z,29.33
2022-08-17T13:27:24.364Z,29.42
2022-08-17T13:29:59.985Z,29.50
2022-08-17T13:32:36.363Z,29.52
2022-08-17T13:35:50.002Z,29.45
2022-08-17T13:38:41.392Z,29.71
2022-08-17T13:41:09.944Z,29.66
2022-08-17T13:43:45.214Z,29.76
2022-08-17T13:46:27.610Z,29.53
2022-08-17T13:49:05.134Z,29.44
2022-08-17T13:51:55.356Z,29.86
2022-08-17T13:54:35.725Z,29.82
2022-08-17T13:57:19.174Z,29.67
2022-08-17T13:59:53.825Z,29.64
2022-08-17T14:02:27.771Z,29.64
2022-08-17T14:04:58.733Z,29.73
2022-08-17T14:07:36.751Z,29.74
2022-08-17T14:10:13.885Z,29.65
2022-08-17T14:12:43.735Z,29.62
2022-08-17T14:15:15.645Z,29.58
2022-08-17T14:17:44.272Z,29.53
2022-08-17T14:20:13.364Z,29.60
2022-08-17T14:22:46.853Z,29.67
2022-08-17T14:25:27.296Z,29.56
2022-08-17T14:27:56.456Z,29.57
2022-08-17T14:30:28.907Z,29.57
2022-08-17T14:32:59.214Z,29.55
2022-08-17T14:35:29.390Z,29.50
2022-08-17T14:37:58.116Z,29.40
2022-08-17T14:40:27.643Z,29.37
2022-08-17T14:42:57.992Z,29.34
2022-08-17T14:45:29.653Z,29.34
2022-08-17T14:48:04.604Z,29.29
2022-08-17T14:50:35.335Z,29.40
2022-08-17T14:53:06.276Z,29.36
2022-08-17T14:55:35.046Z,29.31
2022-08-17T14:58:04.384Z,29.31
2022-08-17T15:00:33.974Z,29.40
2022-08-17T15:03:02.884Z,29.36
2022-08-17T15:05:36.848Z,29.41
2022-08-17T15:08:05.979Z,29.43
2022-08-17T15:10:34.868Z,29.47
2022-08-17T15:13:03.555Z,29.58
2022-08-17T15:15:32.369Z,29.69
2022-08-17T15:18:01.479Z,29.66
2022-08-17T15:20:30.552Z,29.51
2022-08-17T15:22:59.558Z,29.46
2022-08-17T15:25:30.530Z,29.60
2022-08-17T15:27:59.343Z,29.49
2022-08-17T15:30:28.868Z,29.52
2022-08-17T15:33:02.061Z,29.62
2022-08-17T15:35:33.315Z,29.56
2022-08-17T15:38:11.054Z,29.52
2022-08-17T15:40:47.651Z,29.45
2022-08-17T15:43:27.421Z,29.44
2022-08-17T15:46:05.347Z,29.46
2022-08-17T15:48:45.135Z,29.49
2022-08-17T15:51:21.106Z,29.43
2022-08-17T15:54:19.201Z,29.56
2022-08-17T15:56:51.821Z,29.68
2022-08-17T15:59:20.331Z,29.58
2022-08-17T16:03:01.723Z,29.60
2022-08-17T16:04:38.115Z,29.61
2022-08-17T16:07:12.728Z,29.63
2022-08-17T16:09:42.338Z,29.60
2022-08-17T16:12:17.441Z,29.61
2022-08-17T16:14:47.707Z,29.63
2022-08-17T16:17:38.325Z,29.61
2022-08-17T16:20:08.255Z,29.56
2022-08-17T16:22:42.695Z,29.55
2022-08-17T16:25:20.134Z,29.53
2022-08-17T16:27:53.733Z,29.50
2022-08-17T16:30:25.436Z,29.49
2022-08-17T16:32:54.655Z,29.51
2022-08-17T16:35:25.595Z,29.55
2022-08-17T16:37:56.055Z,29.54
2022-08-17T16:40:28.315Z,29.46
2022-08-17T16:42:57.811Z,29.44
2022-08-17T16:45:29.416Z,29.42
2022-08-17T16:48:01.854Z,29.42
2022-08-17T16:50:32.272Z,29.39
2022-08-17T16:53:11.175Z,29.32
2022-08-17T16:55:39.693Z,29.33
2022-08-17T16:58:09.194Z,29.29
2022-08-17T17:00:38.033Z,29.27
2022-08-17T17:03:19.146Z,29.30
2022-08-17T17:06:07.514Z,29.27
2022-08-17T17:08:46.869Z,29.21
2022-08-17T17:11:48.638Z,29.18
2022-08-17T17:14:28.948Z,29.16
2022-08-17T17:17:34.536Z,29.11
2022-08-17T17:20:15.774Z,29.09
2022-08-17T17:22:57.555Z,29.02
2022-08-17T17:25:33.589Z,28.98
2022-08-17T17:28:17.986Z,29.01
2022-08-17T17:30:52.290Z,28.97
2022-08-17T17:33:38.842Z,28.99
2022-08-17T17:36:43.900Z,29.02
2022-08-17T17:39:23.849Z,28.98
2022-08-17T17:41:56.791Z,28.97
2022-08-17T17:44:33.101Z,28.94
2022-08-17T17:47:04.040Z,28.90
2022-08-17T17:49:45.463Z,28.92
2022-08-17T17:52:28.630Z,28.91
2022-08-17T17:55:23.487Z,28.64
2022-08-17T17:58:14.460Z,28.53
2022-08-17T18:01:42.202Z,28.12
2022-08-17T18:04:46.365Z,27.92
2022-08-17T18:07:24.191Z,26.78
2022-08-17T18:10:13.766Z,26.17
2022-08-17T18:13:20.949Z,25.69
2022-08-17T18:15:52.337Z,25.89
2022-08-17T18:18:38.203Z,25.20
2022-08-17T18:21:19.639Z,25.49
2022-08-17T18:24:05.286Z,26.54
2022-08-17T18:26:33.984Z,26.57
2022-08-17T18:29:21.995Z,26.83
2022-08-17T18:32:26.315Z,27.03
2022-08-17T18:35:28.174Z,27.12
2022-08-17T18:38:31.548Z,27.21
2022-08-17T18:41:21.503Z,27.16
2022-08-17T18:44:25.176Z,27.27
2022-08-17T18:47:24.978Z,27.43
2022-08-17T18:49:58.556Z,27.32
2022-08-17T18:52:30.843Z,27.40
2022-08-17T18:55:12.073Z,27.57
2022-08-17T18:57:46.419Z,27.52
2022-08-17T19:00:45.184Z,27.43
2022-08-17T19:03:18.339Z,27.40
2022-08-17T19:05:52.215Z,27.46
2022-08-17T19:08:30.274Z,27.38
2022-08-17T19:11:06.080Z,27.44
2022-08-17T19:13:52.438Z,27.48
2022-08-17T19:17:09.515Z,27.46
2022-08-17T19:20:25.297Z,27.48
2022-08-17T19:23:26.100Z,27.17
2022-08-17T19:25:58.856Z,27.25
2022-08-17T19:28:57.746Z,27.41
2022-08-17T19:31:29.872Z,27.45
2022-08-17T19:33:59.023Z,27.42
2022-08-17T19:36:40.081Z,27.35
2022-08-17T19:39:44.714Z,27.41
2022-08-17T19:42:15.626Z,27.34
2022-08-17T19:45:07.449Z,27.40
2022-08-17T19:47:55.128Z,27.47
2022-08-17T19:50:53.142Z,27.37
2022-08-17T19:54:08.734Z,27.41
2022-08-17T19:57:09.676Z,27.31
2022-08-17T19:59:57.233Z,27.34
2022-08-17T20:02:53.921Z,27.13
2022-08-17T20:06:10.938Z,27.28
2022-08-17T20:08:39.799Z,27.12
2022-08-17T20:11:15.050Z,27.26
2022-08-17T20:14:07.487Z,27.12
2022-08-17T20:16:36.420Z,26.97
2022-08-17T20:19:25.281Z,26.75
2022-08-17T20:22:03.806Z,26.56
2022-08-17T20:24:50.754Z,26.64
2022-08-17T20:27:31.892Z,26.81
2022-08-17T20:30:06.959Z,27.07
2022-08-17T20:32:56.583Z,27.09
2022-08-17T20:35:28.897Z,27.13
2022-08-17T20:38:05.269Z,27.12
2022-08-17T20:40:40.204Z,27.03
2022-08-17T20:43:34.012Z,26.79
2022-08-17T20:46:29.472Z,26.54
2022-08-17T20:49:14.761Z,26.12
2022-08-17T20:52:07.997Z,26.43
2022-08-17T20:54:57.504Z,26.68
2022-08-17T20:57:38.231Z,26.84
2022-08-17T21:00:30.403Z,26.91
2022-08-17T21:03:23.405Z,26.86
2022-08-17T21:05:57.401Z,26.77
2022-08-17T21:08:54.902Z,26.75
2022-08-17T21:11:57.235Z,26.84
2022-08-17T21:14:59.182Z,26.91
2022-08-17T21:17:59.576Z,26.88
2022-08-17T21:20:48.611Z,26.87
2022-08-17T21:23:32.669Z,26.81
2022-08-17T21:27:00.431Z,26.80
2022-08-17T21:29:33.816Z,26.91
2022-08-17T21:32:06.207Z,26.91
2022-08-17T21:35:06.750Z,26.77
2022-08-17T21:37:46.896Z,26.66
2022-08-17T21:40:18.867Z,26.61
2022-08-17T21:42:59.971Z,26.57
2022-08-17T21:45:35.801Z,26.54
2022-08-17T21:48:24.322Z,26.42
2022-08-17T21:51:21.522Z,26.49
2022-08-17T21:53:58.765Z,26.55
2022-08-17T21:56:37.063Z,26.59
2022-08-17T21:59:33.247Z,26.54
2022-08-17T22:02:30.401Z,26.56
2022-08-17T22:05:11.403Z,26.53
2022-08-17T22:07:43.021Z,26.59
2022-08-17T22:10:49.368Z,26.57
2022-08-17T22:13:18.144Z,26.46
2022-08-17T22:16:15.420Z,26.49
2022-08-17T22:18:58.817Z,26.49
2022-08-17T22:21:27.647Z,26.44
2022-08-17T22:24:15.599Z,26.48
2022-08-17T22:27:12.016Z,26.44
2022-08-17T22:29:57.754Z,26.45
2022-08-17T22:32:45.669Z,26.36
2022-08-17T22:35:42.005Z,26.36
2022-08-17T22:38:20.110Z,26.38
2022-08-17T22:41:28.102Z,26.39
2022-08-17T22:43:57.605Z,26.37
2022-08-17T22:46:27.091Z,26.37
2022-08-17T22:48:58.403Z,26.32
2022-08-17T22:51:30.146Z,26.39
2022-08-17T22:54:21.186Z,26.30
2022-08-17T22:57:19.188Z,26.31
2022-08-17T22:59:50.783Z,26.31
2022-08-17T23:02:29.935Z,26.30
2022-08-17T23:05:10.553Z,26.28
2022-08-17T23:07:44.340Z,26.36
2022-08-17T23:10:13.715Z,26.27
2022-08-17T23:12:42.619Z,26.28
2022-08-17T23:15:15.079Z,26.27
2022-08-17T23:17:44.496Z,26.33
2022-08-17T23:20:16.086Z,26.29
2022-08-17T23:22:52.461Z,26.21
2022-08-17T23:25:31.215Z,26.24
2022-08-17T23:28:02.044Z,26.22
2022-08-17T23:30:33.513Z,26.16
2022-08-17T23:33:06.493Z,26.15
2022-08-17T23:35:39.053Z,26.14
2022-08-17T23:38:11.562Z,26.12
2022-08-17T23:40:40.707Z,26.10
2022-08-17T23:43:24.322Z,26.10
2022-08-17T23:45:55.556Z,26.02
2022-08-17T23:48:35.677Z,25.98
2022-08-17T23:51:15.331Z,26.02
2022-08-17T23:54:07.222Z,26.12
2022-08-17T23:56:47.262Z,26.11
2022-08-17T23:59:22.781Z,26.08
